Hauptseite
METAR-TAF:

METAR-TAF

Flughäfen :

Flughafen Köln/Bonn

Köln, Deutschland

Breite: 50-52N, Länge: 007-10E, Höhe: 91 m

Beobachtung

Neuester Wetterbericht von vor 32 Minuten, um 10:50 UTC
Wind 3 kt aus unterschiedlichen Richtungen
Temperatur 25°C
Luftfeuchtigkeit 36%
Luftdruck 1018 hPa
Sichtweite 10 km oder mehr
keine Wolken unter 1500 m und keine Kumulonimbus oder Gewitterwolken

METAR: EDDK 191050Z VRB03KT CAVOK 25/09 Q1018 NOSIG

Zeit: 13:22 (11:22 UTC)

Prognose

Neuester Wetterbericht von vor 6 Stunden und 22 Minuten, um 05:00 UTC
Gültige Prognose vom 19 um 06 UTC bis 20 um 12 UTC
Wind 3 kt aus unterschiedlichen Richtungen
Sichtweite 10 km oder mehr
keine Wolken unter 1500 m und keine Kumulonimbus oder Gewitterwolken
Zeitweise
vom 19 um 11 UTC bis 19 um 21 UTC
Wind 6 kt aus Nordost

TAF: EDDK 190500Z 1906/2012 VRB03KT CAVOK TEMPO 1911/1921 05006KT

Wetterbeobachtungen und Prognosen von mehr als 4000 Flughäfen (METAR und TAF Bericht).

Die verfügbaren Stationen werden durch gelbe und rote Markierungen auf der Karte dargestellt.

Führen Sie die Maus auf sie, um den Namen der Station zu sehen.

Darauf klicken, um die Beobachtung von Wetterbeobachtungen und Prognosen zu sehen.

Um die Karte zu ändern : klicken Sie auf den grünen Tasten mit einem schwarzen Kreuz Zum Vergrößern, auf den grünen Button mit einem Gedankenstrich zu verkleinern, oder auf die grünen Pfeile für benachbarte Karten.


METAR-TAF: